sensor_id;sensor_type;location;lat;lon;timestamp;P1;durP1;ratioP1;P2;durP2;ratioP2
70967;SDS011;58629;48.808;8.820;2023-06-10T00:01:38;5.45;;;4.88;;
70967;SDS011;58629;48.808;8.820;2023-06-10T00:04:04;5.47;;;4.90;;
70967;SDS011;58629;48.808;8.820;2023-06-10T00:06:29;5.33;;;4.83;;
70967;SDS011;58629;48.808;8.820;2023-06-10T00:09:04;5.88;;;4.70;;
70967;SDS011;58629;48.808;8.820;2023-06-10T00:11:31;5.63;;;5.03;;
70967;SDS011;58629;48.808;8.820;2023-06-10T00:13:57;5.82;;;5.22;;
70967;SDS011;58629;48.808;8.820;2023-06-10T00:16:22;6.57;;;5.67;;
70967;SDS011;58629;48.808;8.820;2023-06-10T00:18:48;6.03;;;5.27;;
70967;SDS011;58629;48.808;8.820;2023-06-10T00:21:13;5.70;;;5.00;;
70967;SDS011;58629;48.808;8.820;2023-06-10T00:23:39;5.50;;;4.87;;
70967;SDS011;58629;48.808;8.820;2023-06-10T00:26:04;5.50;;;4.90;;
70967;SDS011;58629;48.808;8.820;2023-06-10T00:28:30;5.60;;;4.70;;
70967;SDS011;58629;48.808;8.820;2023-06-10T00:30:55;4.77;;;4.27;;
70967;SDS011;58629;48.808;8.820;2023-06-10T00:33:22;4.93;;;4.43;;
70967;SDS011;58629;48.808;8.820;2023-06-10T00:35:48;4.87;;;4.37;;
70967;SDS011;58629;48.808;8.820;2023-06-10T00:38:13;6.47;;;5.57;;
70967;SDS011;58629;48.808;8.820;2023-06-10T00:40:40;7.67;;;5.97;;
70967;SDS011;58629;48.808;8.820;2023-06-10T00:43:09;5.78;;;5.10;;
70967;SDS011;58629;48.808;8.820;2023-06-10T00:45:34;5.35;;;4.72;;
70967;SDS011;58629;48.808;8.820;2023-06-10T00:48:00;6.13;;;5.43;;
70967;SDS011;58629;48.808;8.820;2023-06-10T00:50:26;6.20;;;5.57;;
70967;SDS011;58629;48.808;8.820;2023-06-10T00:52:51;5.93;;;5.00;;
70967;SDS011;58629;48.808;8.820;2023-06-10T00:55:19;5.20;;;4.70;;
70967;SDS011;58629;48.808;8.820;2023-06-10T00:57:45;5.72;;;5.00;;
70967;SDS011;58629;48.808;8.820;2023-06-10T01:00:13;5.50;;;4.97;;
70967;SDS011;58629;48.808;8.820;2023-06-10T01:02:40;6.00;;;5.30;;
70967;SDS011;58629;48.808;8.820;2023-06-10T01:05:06;5.53;;;4.97;;
70967;SDS011;58629;48.808;8.820;2023-06-10T01:07:38;5.27;;;4.77;;
70967;SDS011;58629;48.808;8.820;2023-06-10T01:10:10;5.63;;;5.05;;
70967;SDS011;58629;48.808;8.820;2023-06-10T01:12:46;7.53;;;6.60;;
70967;SDS011;58629;48.808;8.820;2023-06-10T01:15:21;6.85;;;5.97;;
70967;SDS011;58629;48.808;8.820;2023-06-10T01:20:23;6.20;;;5.50;;
70967;SDS011;58629;48.808;8.820;2023-06-10T01:22:49;6.10;;;5.50;;
70967;SDS011;58629;48.808;8.820;2023-06-10T01:25:15;6.18;;;5.38;;
70967;SDS011;58629;48.808;8.820;2023-06-10T01:27:42;5.32;;;4.80;;
70967;SDS011;58629;48.808;8.820;2023-06-10T01:30:13;5.60;;;5.03;;
70967;SDS011;58629;48.808;8.820;2023-06-10T01:32:48;6.82;;;5.15;;
70967;SDS011;58629;48.808;8.820;2023-06-10T01:35:17;5.25;;;4.75;;
70967;SDS011;58629;48.808;8.820;2023-06-10T01:37:45;5.70;;;4.72;;
70967;SDS011;58629;48.808;8.820;2023-06-10T01:40:11;5.70;;;5.10;;
70967;SDS011;58629;48.808;8.820;2023-06-10T01:42:38;5.65;;;4.75;;
70967;SDS011;58629;48.808;8.820;2023-06-10T01:45:03;4.88;;;4.35;;
70967;SDS011;58629;48.808;8.820;2023-06-10T01:47:29;6.80;;;5.30;;
70967;SDS011;58629;48.808;8.820;2023-06-10T01:49:54;5.70;;;5.10;;
70967;SDS011;58629;48.808;8.820;2023-06-10T01:52:20;5.68;;;4.75;;
70967;SDS011;58629;48.808;8.820;2023-06-10T01:54:45;7.20;;;5.75;;
70967;SDS011;58629;48.808;8.820;2023-06-10T01:57:10;6.03;;;4.73;;
70967;SDS011;58629;48.808;8.820;2023-06-10T01:59:36;5.00;;;4.33;;
70967;SDS011;58629;48.808;8.820;2023-06-10T02:02:02;5.10;;;4.60;;
70967;SDS011;58629;48.808;8.820;2023-06-10T02:04:28;5.27;;;4.40;;
70967;SDS011;58629;48.808;8.820;2023-06-10T02:06:53;5.33;;;4.50;;
70967;SDS011;58629;48.808;8.820;2023-06-10T02:09:20;4.57;;;4.05;;
70967;SDS011;58629;48.808;8.820;2023-06-10T02:11:47;4.53;;;4.03;;
70967;SDS011;58629;48.808;8.820;2023-06-10T02:14:13;5.67;;;4.67;;
70967;SDS011;58629;48.808;8.820;2023-06-10T02:16:38;5.43;;;4.67;;
70967;SDS011;58629;48.808;8.820;2023-06-10T02:19:04;4.78;;;4.03;;
70967;SDS011;58629;48.808;8.820;2023-06-10T02:21:31;5.00;;;4.18;;
70967;SDS011;58629;48.808;8.820;2023-06-10T02:23:57;5.23;;;4.50;;
70967;SDS011;58629;48.808;8.820;2023-06-10T02:26:22;5.83;;;5.20;;
70967;SDS011;58629;48.808;8.820;2023-06-10T02:28:48;4.90;;;4.22;;
70967;SDS011;58629;48.808;8.820;2023-06-10T02:31:13;5.00;;;4.40;;
70967;SDS011;58629;48.808;8.820;2023-06-10T02:33:39;3.95;;;3.55;;
70967;SDS011;58629;48.808;8.820;2023-06-10T02:36:05;5.03;;;4.20;;
70967;SDS011;58629;48.808;8.820;2023-06-10T02:38:31;4.22;;;3.50;;
70967;SDS011;58629;48.808;8.820;2023-06-10T02:40:56;4.63;;;4.10;;
70967;SDS011;58629;48.808;8.820;2023-06-10T02:43:21;5.03;;;4.50;;
70967;SDS011;58629;48.808;8.820;2023-06-10T02:45:47;5.23;;;4.30;;
70967;SDS011;58629;48.808;8.820;2023-06-10T02:48:12;6.37;;;5.33;;
70967;SDS011;58629;48.808;8.820;2023-06-10T02:50:37;6.97;;;5.57;;
70967;SDS011;58629;48.808;8.820;2023-06-10T02:53:05;6.93;;;5.57;;
70967;SDS011;58629;48.808;8.820;2023-06-10T02:55:30;6.20;;;5.10;;
70967;SDS011;58629;48.808;8.820;2023-06-10T02:57:55;5.83;;;5.17;;
70967;SDS011;58629;48.808;8.820;2023-06-10T03:00:21;7.13;;;6.00;;
70967;SDS011;58629;48.808;8.820;2023-06-10T03:02:46;5.75;;;4.90;;
70967;SDS011;58629;48.808;8.820;2023-06-10T03:05:12;6.03;;;5.20;;
70967;SDS011;58629;48.808;8.820;2023-06-10T03:07:38;7.25;;;6.20;;
70967;SDS011;58629;48.808;8.820;2023-06-10T03:10:03;6.20;;;5.27;;
70967;SDS011;58629;48.808;8.820;2023-06-10T03:12:29;5.75;;;4.90;;
70967;SDS011;58629;48.808;8.820;2023-06-10T03:14:54;4.80;;;4.30;;
70967;SDS011;58629;48.808;8.820;2023-06-10T03:17:19;5.53;;;4.90;;
70967;SDS011;58629;48.808;8.820;2023-06-10T03:19:45;5.40;;;4.90;;
70967;SDS011;58629;48.808;8.820;2023-06-10T03:22:11;6.03;;;5.43;;
70967;SDS011;58629;48.808;8.820;2023-06-10T03:24:40;5.95;;;5.20;;
70967;SDS011;58629;48.808;8.820;2023-06-10T03:27:12;7.30;;;6.10;;
70967;SDS011;58629;48.808;8.820;2023-06-10T03:29:38;6.75;;;5.53;;
70967;SDS011;58629;48.808;8.820;2023-06-10T03:32:04;6.13;;;5.30;;
70967;SDS011;58629;48.808;8.820;2023-06-10T03:34:29;6.33;;;5.37;;
70967;SDS011;58629;48.808;8.820;2023-06-10T03:36:55;5.43;;;4.90;;
70967;SDS011;58629;48.808;8.820;2023-06-10T03:39:23;6.13;;;5.22;;
70967;SDS011;58629;48.808;8.820;2023-06-10T03:41:49;5.63;;;5.00;;
70967;SDS011;58629;48.808;8.820;2023-06-10T03:44:15;5.70;;;4.68;;
70967;SDS011;58629;48.808;8.820;2023-06-10T03:46:41;4.90;;;4.37;;
70967;SDS011;58629;48.808;8.820;2023-06-10T03:49:06;5.60;;;4.50;;
70967;SDS011;58629;48.808;8.820;2023-06-10T03:51:31;5.80;;;4.83;;
70967;SDS011;58629;48.808;8.820;2023-06-10T03:53:57;4.97;;;4.23;;
70967;SDS011;58629;48.808;8.820;2023-06-10T03:56:22;5.27;;;4.30;;
70967;SDS011;58629;48.808;8.820;2023-06-10T03:58:47;4.40;;;3.87;;
70967;SDS011;58629;48.808;8.820;2023-06-10T04:01:12;5.33;;;4.53;;
70967;SDS011;58629;48.808;8.820;2023-06-10T04:03:38;5.30;;;4.50;;
70967;SDS011;58629;48.808;8.820;2023-06-10T04:06:04;6.00;;;5.20;;
70967;SDS011;58629;48.808;8.820;2023-06-10T04:08:29;7.17;;;6.10;;
70967;SDS011;58629;48.808;8.820;2023-06-10T04:10:56;6.97;;;5.63;;
70967;SDS011;58629;48.808;8.820;2023-06-10T04:13:22;6.25;;;5.18;;
70967;SDS011;58629;48.808;8.820;2023-06-10T04:15:47;7.57;;;5.67;;
70967;SDS011;58629;48.808;8.820;2023-06-10T04:18:13;5.27;;;4.47;;
70967;SDS011;58629;48.808;8.820;2023-06-10T04:20:38;5.38;;;4.50;;
70967;SDS011;58629;48.808;8.820;2023-06-10T04:23:03;4.93;;;4.35;;
70967;SDS011;58629;48.808;8.820;2023-06-10T04:25:28;5.88;;;4.70;;
70967;SDS011;58629;48.808;8.820;2023-06-10T04:27:54;6.60;;;5.07;;
70967;SDS011;58629;48.808;8.820;2023-06-10T04:30:20;6.03;;;5.10;;
70967;SDS011;58629;48.808;8.820;2023-06-10T04:32:45;7.37;;;5.47;;
70967;SDS011;58629;48.808;8.820;2023-06-10T04:35:14;5.90;;;5.30;;
70967;SDS011;58629;48.808;8.820;2023-06-10T04:37:40;6.15;;;5.32;;
70967;SDS011;58629;48.808;8.820;2023-06-10T04:40:06;6.70;;;5.40;;
70967;SDS011;58629;48.808;8.820;2023-06-10T04:42:32;5.17;;;4.63;;
70967;SDS011;58629;48.808;8.820;2023-06-10T04:44:58;5.95;;;5.15;;
70967;SDS011;58629;48.808;8.820;2023-06-10T04:47:23;6.47;;;5.03;;
70967;SDS011;58629;48.808;8.820;2023-06-10T04:49:48;7.70;;;6.27;;
70967;SDS011;58629;48.808;8.820;2023-06-10T04:52:14;7.67;;;6.57;;
70967;SDS011;58629;48.808;8.820;2023-06-10T04:54:39;6.53;;;5.60;;
70967;SDS011;58629;48.808;8.820;2023-06-10T04:57:05;6.13;;;5.00;;
70967;SDS011;58629;48.808;8.820;2023-06-10T04:59:32;5.25;;;4.75;;
70967;SDS011;58629;48.808;8.820;2023-06-10T05:01:58;4.80;;;4.23;;
70967;SDS011;58629;48.808;8.820;2023-06-10T05:04:23;5.05;;;4.55;;
70967;SDS011;58629;48.808;8.820;2023-06-10T05:06:49;6.63;;;5.27;;
70967;SDS011;58629;48.808;8.820;2023-06-10T05:09:14;5.43;;;4.60;;
70967;SDS011;58629;48.808;8.820;2023-06-10T05:11:40;4.78;;;4.28;;
70967;SDS011;58629;48.808;8.820;2023-06-10T05:14:05;4.60;;;4.10;;
70967;SDS011;58629;48.808;8.820;2023-06-10T05:16:31;4.93;;;4.40;;
70967;SDS011;58629;48.808;8.820;2023-06-10T05:18:56;5.13;;;4.30;;
70967;SDS011;58629;48.808;8.820;2023-06-10T05:21:21;6.20;;;5.23;;
70967;SDS011;58629;48.808;8.820;2023-06-10T05:23:46;6.87;;;5.80;;
70967;SDS011;58629;48.808;8.820;2023-06-10T05:26:12;6.87;;;6.10;;
70967;SDS011;58629;48.808;8.820;2023-06-10T05:28:37;5.90;;;5.17;;
70967;SDS011;58629;48.808;8.820;2023-06-10T05:31:02;6.70;;;5.75;;
70967;SDS011;58629;48.808;8.820;2023-06-10T05:33:28;6.25;;;5.50;;
70967;SDS011;58629;48.808;8.820;2023-06-10T05:35:53;6.30;;;5.53;;
70967;SDS011;58629;48.808;8.820;2023-06-10T05:38:18;6.87;;;6.17;;
70967;SDS011;58629;48.808;8.820;2023-06-10T05:40:43;7.60;;;6.50;;
70967;SDS011;58629;48.808;8.820;2023-06-10T05:43:09;6.83;;;6.13;;
70967;SDS011;58629;48.808;8.820;2023-06-10T05:45:35;6.30;;;5.50;;
70967;SDS011;58629;48.808;8.820;2023-06-10T05:48:01;5.65;;;5.05;;
70967;SDS011;58629;48.808;8.820;2023-06-10T05:50:27;5.30;;;4.80;;
70967;SDS011;58629;48.808;8.820;2023-06-10T05:52:52;5.30;;;4.80;;
70967;SDS011;58629;48.808;8.820;2023-06-10T05:55:18;5.68;;;5.07;;
70967;SDS011;58629;48.808;8.820;2023-06-10T05:57:44;5.40;;;4.90;;
70967;SDS011;58629;48.808;8.820;2023-06-10T06:00:09;6.27;;;4.70;;
70967;SDS011;58629;48.808;8.820;2023-06-10T06:02:35;5.28;;;4.32;;
70967;SDS011;58629;48.808;8.820;2023-06-10T06:05:00;6.07;;;4.93;;
70967;SDS011;58629;48.808;8.820;2023-06-10T06:07:25;5.80;;;5.20;;
70967;SDS011;58629;48.808;8.820;2023-06-10T06:09:51;5.60;;;5.05;;
70967;SDS011;58629;48.808;8.820;2023-06-10T06:12:16;5.80;;;5.20;;
70967;SDS011;58629;48.808;8.820;2023-06-10T06:14:42;5.30;;;4.80;;
70967;SDS011;58629;48.808;8.820;2023-06-10T06:17:07;5.27;;;4.77;;
70967;SDS011;58629;48.808;8.820;2023-06-10T06:19:33;5.97;;;4.45;;
70967;SDS011;58629;48.808;8.820;2023-06-10T06:21:58;7.65;;;6.60;;
70967;SDS011;58629;48.808;8.820;2023-06-10T06:24:24;6.17;;;5.57;;
70967;SDS011;58629;48.808;8.820;2023-06-10T06:26:49;5.40;;;4.90;;
70967;SDS011;58629;48.808;8.820;2023-06-10T06:29:14;5.72;;;5.00;;
70967;SDS011;58629;48.808;8.820;2023-06-10T06:31:40;6.87;;;5.77;;
70967;SDS011;58629;48.808;8.820;2023-06-10T06:34:05;5.47;;;4.97;;
70967;SDS011;58629;48.808;8.820;2023-06-10T06:36:30;6.87;;;6.17;;
70967;SDS011;58629;48.808;8.820;2023-06-10T06:38:55;5.47;;;4.97;;
70967;SDS011;58629;48.808;8.820;2023-06-10T06:41:22;5.93;;;5.32;;
70967;SDS011;58629;48.808;8.820;2023-06-10T06:43:47;5.10;;;4.60;;
70967;SDS011;58629;48.808;8.820;2023-06-10T06:46:12;4.60;;;4.20;;
70967;SDS011;58629;48.808;8.820;2023-06-10T06:48:38;5.23;;;4.70;;
70967;SDS011;58629;48.808;8.820;2023-06-10T06:51:04;5.53;;;4.95;;
70967;SDS011;58629;48.808;8.820;2023-06-10T06:53:29;5.80;;;4.77;;
70967;SDS011;58629;48.808;8.820;2023-06-10T06:55:54;5.00;;;4.50;;
70967;SDS011;58629;48.808;8.820;2023-06-10T06:58:19;5.03;;;4.53;;
70967;SDS011;58629;48.808;8.820;2023-06-10T07:00:45;5.17;;;4.60;;
70967;SDS011;58629;48.808;8.820;2023-06-10T07:03:10;5.93;;;5.33;;
70967;SDS011;58629;48.808;8.820;2023-06-10T07:05:36;5.57;;;5.07;;
70967;SDS011;58629;48.808;8.820;2023-06-10T07:08:01;6.27;;;5.37;;
70967;SDS011;58629;48.808;8.820;2023-06-10T07:10:26;5.73;;;5.13;;
70967;SDS011;58629;48.808;8.820;2023-06-10T07:12:52;5.30;;;4.80;;
70967;SDS011;58629;48.808;8.820;2023-06-10T07:15:18;5.47;;;4.97;;
70967;SDS011;58629;48.808;8.820;2023-06-10T07:17:43;5.60;;;5.10;;
70967;SDS011;58629;48.808;8.820;2023-06-10T07:20:09;5.43;;;4.93;;
70967;SDS011;58629;48.808;8.820;2023-06-10T07:22:35;5.50;;;4.90;;
70967;SDS011;58629;48.808;8.820;2023-06-10T07:25:00;5.27;;;4.77;;
70967;SDS011;58629;48.808;8.820;2023-06-10T07:27:26;5.10;;;4.60;;
70967;SDS011;58629;48.808;8.820;2023-06-10T07:29:51;5.40;;;4.90;;
70967;SDS011;58629;48.808;8.820;2023-06-10T07:32:16;5.80;;;5.00;;
70967;SDS011;58629;48.808;8.820;2023-06-10T07:34:42;4.50;;;4.10;;
70967;SDS011;58629;48.808;8.820;2023-06-10T07:37:07;4.40;;;4.00;;
70967;SDS011;58629;48.808;8.820;2023-06-10T07:39:33;4.70;;;4.30;;
70967;SDS011;58629;48.808;8.820;2023-06-10T07:41:59;4.37;;;3.97;;
70967;SDS011;58629;48.808;8.820;2023-06-10T07:44:24;4.35;;;3.95;;
70967;SDS011;58629;48.808;8.820;2023-06-10T07:46:49;4.20;;;3.80;;
70967;SDS011;58629;48.808;8.820;2023-06-10T07:49:15;4.53;;;4.13;;
70967;SDS011;58629;48.808;8.820;2023-06-10T07:51:40;4.00;;;3.50;;
70967;SDS011;58629;48.808;8.820;2023-06-10T07:54:05;4.10;;;3.70;;
70967;SDS011;58629;48.808;8.820;2023-06-10T07:56:30;4.47;;;4.07;;
70967;SDS011;58629;48.808;8.820;2023-06-10T07:58:56;4.45;;;4.05;;
70967;SDS011;58629;48.808;8.820;2023-06-10T08:01:22;4.87;;;4.40;;
70967;SDS011;58629;48.808;8.820;2023-06-10T08:03:48;4.30;;;3.90;;
70967;SDS011;58629;48.808;8.820;2023-06-10T08:06:13;4.20;;;3.80;;
70967;SDS011;58629;48.808;8.820;2023-06-10T08:08:39;4.27;;;3.87;;
70967;SDS011;58629;48.808;8.820;2023-06-10T08:11:08;4.43;;;4.03;;
70967;SDS011;58629;48.808;8.820;2023-06-10T08:13:34;4.43;;;4.03;;
70967;SDS011;58629;48.808;8.820;2023-06-10T08:15:59;5.00;;;4.50;;
70967;SDS011;58629;48.808;8.820;2023-06-10T08:18:24;4.43;;;4.03;;
70967;SDS011;58629;48.808;8.820;2023-06-10T08:20:50;5.90;;;4.97;;
70967;SDS011;58629;48.808;8.820;2023-06-10T08:23:15;4.83;;;4.43;;
70967;SDS011;58629;48.808;8.820;2023-06-10T08:25:40;5.82;;;5.32;;
70967;SDS011;58629;48.808;8.820;2023-06-10T08:28:06;5.87;;;4.90;;
70967;SDS011;58629;48.808;8.820;2023-06-10T08:30:31;5.87;;;5.30;;
70967;SDS011;58629;48.808;8.820;2023-06-10T08:32:56;6.07;;;5.50;;
70967;SDS011;58629;48.808;8.820;2023-06-10T08:35:22;6.10;;;5.50;;
70967;SDS011;58629;48.808;8.820;2023-06-10T08:37:47;5.67;;;5.13;;
70967;SDS011;58629;48.808;8.820;2023-06-10T08:40:12;7.20;;;5.97;;
70967;SDS011;58629;48.808;8.820;2023-06-10T08:42:39;6.35;;;5.75;;
70967;SDS011;58629;48.808;8.820;2023-06-10T08:45:10;6.15;;;5.50;;
70967;SDS011;58629;48.808;8.820;2023-06-10T08:47:42;6.10;;;5.50;;
70967;SDS011;58629;48.808;8.820;2023-06-10T08:50:09;5.85;;;5.25;;
70967;SDS011;58629;48.808;8.820;2023-06-10T08:52:35;5.55;;;5.05;;
70967;SDS011;58629;48.808;8.820;2023-06-10T08:57:44;5.50;;;5.00;;
70967;SDS011;58629;48.808;8.820;2023-06-10T09:00:10;5.78;;;5.00;;
70967;SDS011;58629;48.808;8.820;2023-06-10T09:02:38;16.38;;;7.65;;
70967;SDS011;58629;48.808;8.820;2023-06-10T09:05:03;6.90;;;5.50;;
70967;SDS011;58629;48.808;8.820;2023-06-10T09:07:30;6.65;;;5.03;;
70967;SDS011;58629;48.808;8.820;2023-06-10T09:10:01;12.82;;;6.50;;
70967;SDS011;58629;48.808;8.820;2023-06-10T09:12:31;9.90;;;4.88;;
70967;SDS011;58629;48.808;8.820;2023-06-10T09:14:57;5.53;;;4.80;;
70967;SDS011;58629;48.808;8.820;2023-06-10T09:17:23;12.63;;;5.78;;
70967;SDS011;58629;48.808;8.820;2023-06-10T09:19:48;42.20;;;10.23;;
70967;SDS011;58629;48.808;8.820;2023-06-10T09:22:15;21.55;;;7.70;;
70967;SDS011;58629;48.808;8.820;2023-06-10T09:24:40;6.97;;;5.70;;
70967;SDS011;58629;48.808;8.820;2023-06-10T09:27:07;5.60;;;4.80;;
70967;SDS011;58629;48.808;8.820;2023-06-10T09:29:45;5.00;;;4.53;;
70967;SDS011;58629;48.808;8.820;2023-06-10T09:32:19;5.40;;;4.90;;
70967;SDS011;58629;48.808;8.820;2023-06-10T09:34:45;5.10;;;4.60;;
70967;SDS011;58629;48.808;8.820;2023-06-10T09:37:11;5.20;;;4.70;;
70967;SDS011;58629;48.808;8.820;2023-06-10T09:39:38;5.75;;;5.15;;
70967;SDS011;58629;48.808;8.820;2023-06-10T09:42:17;5.25;;;4.75;;
70967;SDS011;58629;48.808;8.820;2023-06-10T09:44:49;5.03;;;4.63;;
70967;SDS011;58629;48.808;8.820;2023-06-10T09:47:19;4.97;;;4.57;;
70967;SDS011;58629;48.808;8.820;2023-06-10T09:49:48;4.80;;;4.40;;
70967;SDS011;58629;48.808;8.820;2023-06-10T09:52:23;5.68;;;4.70;;
70967;SDS011;58629;48.808;8.820;2023-06-10T09:54:50;5.30;;;4.85;;
70967;SDS011;58629;48.808;8.820;2023-06-10T09:57:17;5.55;;;5.05;;
70967;SDS011;58629;48.808;8.820;2023-06-10T09:59:43;5.32;;;4.82;;
70967;SDS011;58629;48.808;8.820;2023-06-10T10:02:16;5.50;;;5.00;;
70967;SDS011;58629;48.808;8.820;2023-06-10T10:04:43;5.13;;;4.70;;
70967;SDS011;58629;48.808;8.820;2023-06-10T10:07:09;5.53;;;5.03;;
70967;SDS011;58629;48.808;8.820;2023-06-10T10:09:39;5.32;;;4.82;;
70967;SDS011;58629;48.808;8.820;2023-06-10T10:12:15;5.50;;;4.97;;
70967;SDS011;58629;48.808;8.820;2023-06-10T10:14:43;5.47;;;5.00;;
70967;SDS011;58629;48.808;8.820;2023-06-10T10:17:12;5.88;;;4.60;;
70967;SDS011;58629;48.808;8.820;2023-06-10T10:19:43;5.10;;;4.60;;
70967;SDS011;58629;48.808;8.820;2023-06-10T10:22:25;6.50;;;5.90;;
70967;SDS011;58629;48.808;8.820;2023-06-10T10:24:59;5.95;;;5.45;;
70967;SDS011;58629;48.808;8.820;2023-06-10T10:27:28;6.03;;;5.37;;
70967;SDS011;58629;48.808;8.820;2023-06-10T10:29:58;5.38;;;4.90;;
70967;SDS011;58629;48.808;8.820;2023-06-10T10:32:26;5.47;;;5.05;;
70967;SDS011;58629;48.808;8.820;2023-06-10T10:35:07;5.13;;;4.72;;
70967;SDS011;58629;48.808;8.820;2023-06-10T10:37:35;5.57;;;4.80;;
70967;SDS011;58629;48.808;8.820;2023-06-10T10:40:00;5.50;;;5.00;;
70967;SDS011;58629;48.808;8.820;2023-06-10T10:42:28;5.65;;;5.15;;
70967;SDS011;58629;48.808;8.820;2023-06-10T10:44:54;5.43;;;5.03;;
70967;SDS011;58629;48.808;8.820;2023-06-10T10:47:21;5.53;;;5.05;;
70967;SDS011;58629;48.808;8.820;2023-06-10T10:49:47;5.50;;;5.00;;
70967;SDS011;58629;48.808;8.820;2023-06-10T10:52:16;4.93;;;4.53;;
70967;SDS011;58629;48.808;8.820;2023-06-10T10:54:45;4.90;;;4.50;;
70967;SDS011;58629;48.808;8.820;2023-06-10T10:57:17;5.13;;;4.72;;
70967;SDS011;58629;48.808;8.820;2023-06-10T10:59:59;4.90;;;4.50;;
70967;SDS011;58629;48.808;8.820;2023-06-10T11:02:44;4.88;;;4.47;;
70967;SDS011;58629;48.808;8.820;2023-06-10T11:05:13;5.22;;;4.75;;
70967;SDS011;58629;48.808;8.820;2023-06-10T11:07:39;5.30;;;4.90;;
70967;SDS011;58629;48.808;8.820;2023-06-10T11:12:42;5.40;;;5.00;;
70967;SDS011;58629;48.808;8.820;2023-06-10T11:15:10;5.32;;;4.93;;
70967;SDS011;58629;48.808;8.820;2023-06-10T11:17:37;5.00;;;4.60;;
70967;SDS011;58629;48.808;8.820;2023-06-10T11:20:02;5.10;;;4.60;;
70967;SDS011;58629;48.808;8.820;2023-06-10T11:22:27;4.70;;;4.30;;
70967;SDS011;58629;48.808;8.820;2023-06-10T11:24:53;5.10;;;4.70;;
70967;SDS011;58629;48.808;8.820;2023-06-10T11:27:22;4.60;;;4.23;;
70967;SDS011;58629;48.808;8.820;2023-06-10T11:29:56;5.57;;;5.07;;
70967;SDS011;58629;48.808;8.820;2023-06-10T11:32:21;4.78;;;4.38;;
70967;SDS011;58629;48.808;8.820;2023-06-10T11:34:51;5.37;;;4.97;;
70967;SDS011;58629;48.808;8.820;2023-06-10T11:37:18;5.47;;;4.97;;
70967;SDS011;58629;48.808;8.820;2023-06-10T11:39:43;5.00;;;4.60;;
70967;SDS011;58629;48.808;8.820;2023-06-10T11:42:09;4.60;;;4.30;;
70967;SDS011;58629;48.808;8.820;2023-06-10T11:44:35;5.18;;;4.68;;
70967;SDS011;58629;48.808;8.820;2023-06-10T11:47:02;4.85;;;4.45;;
70967;SDS011;58629;48.808;8.820;2023-06-10T11:49:28;4.80;;;4.40;;
70967;SDS011;58629;48.808;8.820;2023-06-10T11:51:53;4.70;;;4.30;;
70967;SDS011;58629;48.808;8.820;2023-06-10T11:54:18;4.20;;;3.90;;
70967;SDS011;58629;48.808;8.820;2023-06-10T11:56:44;4.90;;;4.40;;
70967;SDS011;58629;48.808;8.820;2023-06-10T11:59:09;5.17;;;4.70;;
70967;SDS011;58629;48.808;8.820;2023-06-10T12:01:38;5.15;;;4.70;;
70967;SDS011;58629;48.808;8.820;2023-06-10T12:04:11;4.90;;;4.50;;
70967;SDS011;58629;48.808;8.820;2023-06-10T12:06:47;4.50;;;4.10;;
70967;SDS011;58629;48.808;8.820;2023-06-10T12:11:44;5.28;;;4.78;;
70967;SDS011;58629;48.808;8.820;2023-06-10T12:14:10;5.30;;;4.80;;
70967;SDS011;58629;48.808;8.820;2023-06-10T12:16:36;4.80;;;4.40;;
70967;SDS011;58629;48.808;8.820;2023-06-10T12:19:04;4.97;;;4.57;;
70967;SDS011;58629;48.808;8.820;2023-06-10T12:21:32;4.60;;;4.30;;
70967;SDS011;58629;48.808;8.820;2023-06-10T12:24:00;4.18;;;3.88;;
70967;SDS011;58629;48.808;8.820;2023-06-10T12:29:11;5.10;;;4.70;;
70967;SDS011;58629;48.808;8.820;2023-06-10T12:34:31;4.80;;;4.40;;
70967;SDS011;58629;48.808;8.820;2023-06-10T12:37:01;5.05;;;4.65;;
70967;SDS011;58629;48.808;8.820;2023-06-10T12:39:29;5.60;;;5.10;;
70967;SDS011;58629;48.808;8.820;2023-06-10T12:41:55;4.80;;;4.40;;
70967;SDS011;58629;48.808;8.820;2023-06-10T12:44:30;5.10;;;4.70;;
70967;SDS011;58629;48.808;8.820;2023-06-10T12:46:56;4.87;;;4.47;;
70967;SDS011;58629;48.808;8.820;2023-06-10T12:49:22;4.30;;;4.00;;
70967;SDS011;58629;48.808;8.820;2023-06-10T12:51:47;4.97;;;4.57;;
70967;SDS011;58629;48.808;8.820;2023-06-10T12:54:13;4.40;;;4.03;;
70967;SDS011;58629;48.808;8.820;2023-06-10T12:56:38;4.10;;;3.80;;
70967;SDS011;58629;48.808;8.820;2023-06-10T12:59:03;3.73;;;3.43;;
70967;SDS011;58629;48.808;8.820;2023-06-10T13:01:29;4.50;;;4.10;;
70967;SDS011;58629;48.808;8.820;2023-06-10T13:03:56;4.82;;;4.43;;
70967;SDS011;58629;48.808;8.820;2023-06-10T13:06:21;4.67;;;4.27;;
70967;SDS011;58629;48.808;8.820;2023-06-10T13:08:46;4.20;;;3.90;;
70967;SDS011;58629;48.808;8.820;2023-06-10T13:11:12;5.37;;;4.90;;
70967;SDS011;58629;48.808;8.820;2023-06-10T13:13:37;5.00;;;4.60;;
70967;SDS011;58629;48.808;8.820;2023-06-10T13:16:03;5.17;;;4.70;;
70967;SDS011;58629;48.808;8.820;2023-06-10T13:18:28;5.15;;;4.65;;
70967;SDS011;58629;48.808;8.820;2023-06-10T13:20:53;5.53;;;4.90;;
70967;SDS011;58629;48.808;8.820;2023-06-10T13:23:19;5.40;;;4.90;;
70967;SDS011;58629;48.808;8.820;2023-06-10T13:25:44;5.70;;;5.20;;
70967;SDS011;58629;48.808;8.820;2023-06-10T13:28:09;5.40;;;5.00;;
70967;SDS011;58629;48.808;8.820;2023-06-10T13:30:36;5.40;;;5.00;;
70967;SDS011;58629;48.808;8.820;2023-06-10T13:33:01;5.23;;;4.80;;
70967;SDS011;58629;48.808;8.820;2023-06-10T13:35:26;5.00;;;4.50;;
70967;SDS011;58629;48.808;8.820;2023-06-10T13:37:51;4.20;;;3.90;;
70967;SDS011;58629;48.808;8.820;2023-06-10T13:40:17;4.83;;;4.43;;
70967;SDS011;58629;48.808;8.820;2023-06-10T13:42:44;4.65;;;4.25;;
70967;SDS011;58629;48.808;8.820;2023-06-10T13:45:10;4.60;;;4.20;;
70967;SDS011;58629;48.808;8.820;2023-06-10T13:47:35;4.90;;;4.50;;
70967;SDS011;58629;48.808;8.820;2023-06-10T13:50:00;5.00;;;4.60;;
70967;SDS011;58629;48.808;8.820;2023-06-10T13:52:26;4.77;;;4.37;;
70967;SDS011;58629;48.808;8.820;2023-06-10T13:54:51;4.60;;;4.20;;
70967;SDS011;58629;48.808;8.820;2023-06-10T13:57:16;4.73;;;4.33;;
70967;SDS011;58629;48.808;8.820;2023-06-10T13:59:42;5.67;;;5.13;;
70967;SDS011;58629;48.808;8.820;2023-06-10T14:02:08;4.70;;;4.30;;
70967;SDS011;58629;48.808;8.820;2023-06-10T14:04:34;5.43;;;4.93;;
70967;SDS011;58629;48.808;8.820;2023-06-10T14:06:59;4.60;;;4.20;;
70967;SDS011;58629;48.808;8.820;2023-06-10T14:09:24;4.40;;;4.10;;
70967;SDS011;58629;48.808;8.820;2023-06-10T14:11:50;4.47;;;4.07;;
70967;SDS011;58629;48.808;8.820;2023-06-10T14:14:15;3.77;;;3.47;;
70967;SDS011;58629;48.808;8.820;2023-06-10T14:16:40;3.80;;;3.50;;
70967;SDS011;58629;48.808;8.820;2023-06-10T14:19:05;3.70;;;3.40;;
70967;SDS011;58629;48.808;8.820;2023-06-10T14:21:31;4.20;;;3.90;;
70967;SDS011;58629;48.808;8.820;2023-06-10T14:23:56;4.30;;;3.90;;
70967;SDS011;58629;48.808;8.820;2023-06-10T14:26:21;4.90;;;4.50;;
70967;SDS011;58629;48.808;8.820;2023-06-10T14:28:47;4.87;;;4.37;;
70967;SDS011;58629;48.808;8.820;2023-06-10T14:31:14;5.03;;;4.13;;
70967;SDS011;58629;48.808;8.820;2023-06-10T14:33:39;4.03;;;3.73;;
70967;SDS011;58629;48.808;8.820;2023-06-10T14:36:07;3.97;;;3.60;;
70967;SDS011;58629;48.808;8.820;2023-06-10T14:38:32;3.80;;;3.50;;
70967;SDS011;58629;48.808;8.820;2023-06-10T14:40:57;3.90;;;3.50;;
70967;SDS011;58629;48.808;8.820;2023-06-10T14:43:23;3.67;;;3.37;;
70967;SDS011;58629;48.808;8.820;2023-06-10T14:45:48;3.60;;;3.30;;
70967;SDS011;58629;48.808;8.820;2023-06-10T14:48:16;3.33;;;3.10;;
70967;SDS011;58629;48.808;8.820;2023-06-10T14:50:41;4.10;;;3.80;;
70967;SDS011;58629;48.808;8.820;2023-06-10T14:53:10;4.40;;;4.00;;
70967;SDS011;58629;48.808;8.820;2023-06-10T14:55:35;4.30;;;3.90;;
70967;SDS011;58629;48.808;8.820;2023-06-10T14:58:00;4.70;;;3.87;;
70967;SDS011;58629;48.808;8.820;2023-06-10T15:00:26;4.20;;;3.80;;